Time;durP1;ratioP1;P1;durP2;ratioP2;P2;SDS_P1;SDS_P2;PMS_P1;PMS_P2;Temp;Humidity;BMP_temperature;BMP_pressure;BME280_temperature;BME280_humidity;BME280_pressure;Samples;Min_cycle;Max_cycle;Signal;HPM_P1;HPM_P2
2021/05/18 00:01:35;;;;;;;0.63;0.60;;;9.50;99.90;;;;;;6159561;23;20408;-95
2021/05/18 00:04:01;;;;;;;0.60;0.60;;;9.50;99.90;;;;;;6160896;23;21097;-94
2021/05/18 00:06:27;;;;;;;0.80;0.60;;;9.50;99.90;;;;;;6160910;23;20388;-94
2021/05/18 00:11:44;;;;;;;0.80;0.80;;;9.50;99.90;;;;;;6184098;23;20420;-94
2021/05/18 00:14:17;;;;;;;0.90;0.70;;;9.40;99.90;;;;;;6156413;23;20441;-94
2021/05/18 00:16:43;;;;;;;0.70;0.70;;;9.50;99.90;;;;;;6157966;23;20426;-94
2021/05/18 00:19:09;;;;;;;0.80;0.80;;;9.50;99.90;;;;;;6155348;23;20884;-95
2021/05/18 00:21:36;;;;;;;0.87;0.70;;;9.50;99.90;;;;;;6156913;23;20417;-96
2021/05/18 00:24:02;;;;;;;0.80;0.80;;;9.50;99.90;;;;;;6156316;23;21028;-95
2021/05/18 00:26:28;;;;;;;2.73;0.97;;;9.50;99.90;;;;;;6156200;23;20681;-95
2021/05/18 00:28:54;;;;;;;0.60;0.60;;;9.50;99.90;;;;;;6154843;23;20416;-95
2021/05/18 00:31:19;;;;;;;1.37;0.80;;;9.50;99.90;;;;;;6154374;23;20392;-95
2021/05/18 00:33:48;;;;;;;4.07;0.80;;;9.40;99.90;;;;;;6152576;23;20162;-94
2021/05/18 00:36:13;;;;;;;0.80;0.80;;;9.50;99.90;;;;;;6153576;23;20400;-94
2021/05/18 00:38:43;;;;;;;0.50;0.50;;;9.40;99.90;;;;;;6153629;23;20164;-95
2021/05/18 00:41:11;;;;;;;0.63;0.60;;;9.30;99.90;;;;;;6152730;23;20221;-94
2021/05/18 00:43:46;;;;;;;0.93;0.93;;;9.40;99.90;;;;;;6151741;23;20402;-95
2021/05/18 00:46:12;;;;;;;0.83;0.83;;;9.40;99.90;;;;;;6156471;23;20488;-94
2021/05/18 00:48:38;;;;;;;1.50;0.80;;;9.40;99.90;;;;;;6155855;23;20466;-94
2021/05/18 00:51:09;;;;;;;0.50;0.50;;;9.40;99.90;;;;;;6157029;23;20917;-93
2021/05/18 00:53:38;;;;;;;0.80;0.80;;;9.40;99.90;;;;;;6156732;23;21286;-94
2021/05/18 00:56:19;;;;;;;1.20;0.70;;;9.40;99.90;;;;;;6151793;23;20427;-94
2021/05/18 00:58:46;;;;;;;0.70;0.70;;;9.40;99.90;;;;;;6152365;23;20399;-94
2021/05/18 01:01:20;;;;;;;1.23;0.90;;;9.40;99.90;;;;;;6153254;23;20396;-94
2021/05/18 01:03:48;;;;;;;1.50;0.80;;;9.40;99.90;;;;;;6153154;23;20395;-94
2021/05/18 01:06:48;;;;;;;0.67;0.57;;;9.30;99.90;;;;;;6152283;23;20396;-96
2021/05/18 01:09:10;;;;;;;1.07;0.70;;;9.30;99.90;;;;;;6172804;23;20397;-94
2021/05/18 01:11:40;;;;;;;0.60;0.60;;;9.30;99.90;;;;;;6153230;23;20729;-94
2021/05/18 01:14:18;;;;;;;1.30;1.00;;;9.30;99.90;;;;;;6153523;23;20400;-94
2021/05/18 01:16:48;;;;;;;1.00;0.90;;;9.30;99.90;;;;;;6160168;23;20399;-94
2021/05/18 01:19:18;;;;;;;0.70;0.70;;;9.30;99.90;;;;;;6156786;23;20413;-95
2021/05/18 01:21:44;;;;;;;0.83;0.83;;;9.30;99.90;;;;;;6157646;23;20411;-95
2021/05/18 01:24:11;;;;;;;0.90;0.90;;;9.30;99.90;;;;;;6157480;23;20439;-95
2021/05/18 01:26:38;;;;;;;0.60;0.60;;;9.30;99.90;;;;;;6161656;23;20408;-94
2021/05/18 01:29:05;;;;;;;2.20;0.70;;;9.30;99.90;;;;;;6161219;23;20400;-95
2021/05/18 01:31:32;;;;;;;0.70;0.60;;;9.30;99.90;;;;;;6157814;23;20389;-94
2021/05/18 01:34:03;;;;;;;0.57;0.57;;;9.30;99.90;;;;;;6159753;23;20392;-95
2021/05/18 01:36:31;;;;;;;2.63;1.17;;;9.30;99.90;;;;;;6159448;23;20388;-94
2021/05/18 01:39:04;;;;;;;0.97;0.80;;;9.30;99.90;;;;;;6161171;23;20875;-94
2021/05/18 01:44:15;;;;;;;0.80;0.80;;;9.30;99.90;;;;;;6179357;23;20517;-94
2021/05/18 01:46:42;;;;;;;1.50;0.90;;;9.40;99.90;;;;;;6153102;23;20497;-93
2021/05/18 01:49:11;;;;;;;1.13;1.00;;;9.50;99.90;;;;;;6156114;23;20394;-94
2021/05/18 01:51:43;;;;;;;3.63;1.20;;;9.50;99.90;;;;;;6155048;23;20397;-94
2021/05/18 01:54:12;;;;;;;1.10;1.00;;;9.50;99.90;;;;;;6153771;23;20388;-94
2021/05/18 01:59:09;;;;;;;0.80;0.80;;;9.40;99.90;;;;;;6179886;23;20401;-96
2021/05/18 02:01:36;;;;;;;1.00;0.80;;;9.50;99.90;;;;;;6153425;23;20629;-96
2021/05/18 02:04:03;;;;;;;1.13;0.70;;;9.40;99.90;;;;;;6152792;23;20519;-96
2021/05/18 02:06:30;;;;;;;1.37;0.90;;;9.40;99.90;;;;;;6154712;23;20425;-94
2021/05/18 02:09:04;;;;;;;0.77;0.67;;;9.40;99.90;;;;;;6152157;23;20420;-93
2021/05/18 02:11:31;;;;;;;1.40;1.40;;;9.50;99.90;;;;;;6152744;23;20399;-94
2021/05/18 02:13:59;;;;;;;1.37;1.30;;;9.50;99.90;;;;;;6152458;23;20765;-94
2021/05/18 02:16:32;;;;;;;1.00;1.00;;;9.50;99.90;;;;;;6151407;23;20463;-93
2021/05/18 02:19:21;;;;;;;1.07;0.93;;;9.50;99.90;;;;;;6154948;23;20385;-96
2021/05/18 02:27:05;;;;;;;1.20;1.10;;;9.40;99.90;;;;;;6182066;23;20392;-95
2021/05/18 02:29:31;;;;;;;1.77;1.30;;;9.40;99.90;;;;;;6158311;23;20462;-93
2021/05/18 02:31:57;;;;;;;0.83;0.83;;;9.30;99.90;;;;;;6152904;23;20238;-93
2021/05/18 02:34:23;;;;;;;2.53;1.10;;;9.40;99.90;;;;;;6152356;23;20169;-94
2021/05/18 02:36:48;;;;;;;2.40;1.10;;;9.40;99.90;;;;;;6152733;23;20404;-93
2021/05/18 02:39:14;;;;;;;0.80;0.70;;;9.30;99.90;;;;;;6152803;23;20180;-94
2021/05/18 02:41:40;;;;;;;0.97;0.80;;;9.40;99.90;;;;;;6153385;23;20169;-94
2021/05/18 02:44:16;;;;;;;0.90;0.90;;;9.40;99.90;;;;;;6153132;23;20445;-94
2021/05/18 02:49:26;;;;;;;1.23;0.90;;;9.40;99.90;;;;;;6179710;23;20373;-94
2021/05/18 02:51:51;;;;;;;1.20;1.00;;;9.40;99.90;;;;;;6153616;23;20399;-94
2021/05/18 02:54:22;;;;;;;0.90;0.90;;;9.40;99.90;;;;;;6154126;23;20225;-95
2021/05/18 02:56:53;;;;;;;0.93;0.93;;;9.40;99.90;;;;;;6157963;23;20405;-95
2021/05/18 02:59:19;;;;;;;0.90;0.80;;;9.40;99.90;;;;;;6159219;23;20475;-95
2021/05/18 03:01:57;;;;;;;2.57;1.10;;;9.40;99.90;;;;;;6159286;23;20380;-95
2021/05/18 03:04:24;;;;;;;1.10;1.00;;;9.40;99.90;;;;;;6157863;23;20453;-95
2021/05/18 03:06:50;;;;;;;2.17;0.90;;;9.30;99.90;;;;;;6158345;23;20474;-95
2021/05/18 03:09:18;;;;;;;0.93;0.93;;;9.30;99.90;;;;;;6159535;23;20403;-95
2021/05/18 03:11:45;;;;;;;1.00;1.00;;;9.40;99.90;;;;;;6160596;23;20389;-94
2021/05/18 03:14:13;;;;;;;1.20;1.10;;;9.40;99.90;;;;;;6159020;23;21040;-94
2021/05/18 03:16:40;;;;;;;0.90;0.90;;;9.40;99.90;;;;;;6160536;23;20398;-95
2021/05/18 03:19:09;;;;;;;1.20;0.90;;;9.40;99.90;;;;;;6157721;23;20451;-96
2021/05/18 03:21:35;;;;;;;0.70;0.70;;;9.40;99.90;;;;;;6159096;23;20419;-94
2021/05/18 03:24:00;;;;;;;1.60;0.70;;;9.40;99.90;;;;;;6158619;23;20530;-94
2021/05/18 03:26:27;;;;;;;1.40;1.20;;;9.40;99.90;;;;;;6155987;23;20165;-94
2021/05/18 03:29:10;;;;;;;0.90;0.90;;;9.40;99.90;;;;;;6157180;23;20158;-95
2021/05/18 03:34:29;;;;;;;1.73;1.03;;;9.40;99.90;;;;;;6182097;23;20371;-95
2021/05/18 03:36:58;;;;;;;0.83;0.80;;;9.40;99.90;;;;;;6153101;23;20411;-93
2021/05/18 03:39:24;;;;;;;0.90;0.90;;;9.40;99.90;;;;;;6154777;23;20408;-93
2021/05/18 03:41:56;;;;;;;1.17;0.70;;;9.40;99.90;;;;;;6153407;23;20446;-93
2021/05/18 03:44:49;;;;;;;3.00;2.80;;;9.40;99.90;;;;;;6156587;23;20449;-95
2021/05/18 03:52:46;;;;;;;0.77;0.50;;;9.30;99.90;;;;;;6179394;23;20391;-94
2021/05/18 04:17:00;;;;;;;2.07;1.50;;;9.40;99.90;;;;;;6182697;23;20404;-94
2021/05/18 04:19:34;;;;;;;1.87;0.77;;;9.40;99.90;;;;;;6157755;23;20401;-95
2021/05/18 04:24:58;;;;;;;0.80;0.80;;;9.50;99.90;;;;;;6185738;23;20795;-94
2021/05/18 04:52:10;;;;;;;1.33;1.23;;;9.60;99.90;;;;;;6182579;23;20476;-94
2021/05/18 05:00:04;;;;;;;1.43;1.00;;;9.60;99.90;;;;;;6180353;23;20445;-95
2021/05/18 05:09:09;;;;;;;1.60;0.83;;;9.60;99.90;;;;;;6173620;23;20546;-94
2021/05/18 05:16:10;;;;;;;1.17;1.07;;;9.60;99.90;;;;;;6180322;23;20453;-96
2021/05/18 05:18:36;;;;;;;2.27;1.40;;;9.70;99.90;;;;;;6155708;23;20399;-96
2021/05/18 05:21:08;;;;;;;2.20;1.60;;;9.70;99.90;;;;;;6153549;23;20268;-96
2021/05/18 05:23:37;;;;;;;1.73;1.63;;;9.80;99.90;;;;;;6151969;23;20400;-95
2021/05/18 05:26:16;;;;;;;1.77;1.60;;;9.90;99.90;;;;;;6151979;23;20529;-95
2021/05/18 05:28:43;;;;;;;1.87;1.77;;;10.00;99.90;;;;;;6177122;23;20391;-94
2021/05/18 05:31:09;;;;;;;3.03;1.30;;;10.00;99.90;;;;;;6150324;23;20496;-95
2021/05/18 05:33:35;;;;;;;1.57;1.00;;;10.00;99.90;;;;;;6152419;23;20486;-95
2021/05/18 05:36:00;;;;;;;1.47;1.33;;;10.00;99.90;;;;;;6152174;23;20183;-95
2021/05/18 05:38:29;;;;;;;2.67;1.77;;;10.00;99.90;;;;;;6178126;23;20484;-94
2021/05/18 05:40:55;;;;;;;1.27;1.20;;;10.00;99.90;;;;;;6153957;23;20175;-96
2021/05/18 05:43:24;;;;;;;1.50;1.40;;;10.10;99.90;;;;;;6149905;23;20477;-94
2021/05/18 05:46:00;;;;;;;2.00;1.60;;;10.10;99.90;;;;;;6176480;23;20449;-95
2021/05/18 05:48:26;;;;;;;1.63;1.53;;;10.00;99.90;;;;;;6149332;23;20873;-93
2021/05/18 05:50:51;;;;;;;1.57;1.47;;;10.00;99.90;;;;;;6151621;23;20614;-95
2021/05/18 05:53:17;;;;;;;6.10;1.70;;;10.00;99.90;;;;;;6151632;23;20391;-95
2021/05/18 05:55:43;;;;;;;3.37;1.97;;;9.90;99.90;;;;;;6150567;23;20191;-94
2021/05/18 05:58:09;;;;;;;1.50;1.40;;;9.90;99.90;;;;;;6151435;23;20618;-94
2021/05/18 06:00:44;;;;;;;2.20;2.00;;;9.90;99.90;;;;;;6152060;23;20499;-94
2021/05/18 06:03:13;;;;;;;2.53;2.20;;;10.00;99.90;;;;;;6151439;23;20198;-93
2021/05/18 06:05:39;;;;;;;2.03;1.93;;;10.10;99.90;;;;;;6176650;23;20442;-94
2021/05/18 06:08:08;;;;;;;2.90;1.80;;;10.10;99.90;;;;;;6151667;23;21749;-95
2021/05/18 06:10:39;;;;;;;2.00;1.83;;;10.10;99.90;;;;;;6151763;23;20166;-94
2021/05/18 06:43:27;;;;;;;1.90;1.33;;;10.30;99.90;;;;;;6176884;23;20390;-96
2021/05/18 06:48:28;;;;;;;7.57;1.80;;;10.40;99.90;;;;;;6177646;23;20761;-95
2021/05/18 06:50:54;;;;;;;4.90;1.80;;;10.60;99.90;;;;;;6151287;23;20403;-93
2021/05/18 06:53:19;;;;;;;8.93;2.40;;;10.60;99.90;;;;;;6151554;23;21043;-95
2021/05/18 06:55:47;;;;;;;0.77;0.77;;;10.70;99.90;;;;;;6151388;23;20945;-95
2021/05/18 06:58:21;;;;;;;3.80;1.07;;;10.60;99.90;;;;;;6150775;23;20172;-94
2021/05/18 07:00:49;;;;;;;1.73;1.10;;;10.70;99.90;;;;;;6154768;23;20402;-94
2021/05/18 07:03:18;;;;;;;3.40;1.33;;;10.70;99.90;;;;;;6151900;23;20455;-94
2021/05/18 07:05:54;;;;;;;5.70;1.40;;;10.70;99.90;;;;;;6155515;23;20447;-93
2021/05/18 07:08:54;;;;;;;1.83;1.20;;;10.80;99.90;;;;;;6157531;23;20478;-93
2021/05/18 07:11:17;;;;;;;19.50;3.30;;;10.70;99.90;;;;;;6178110;23;20483;-91
2021/05/18 07:13:43;;;;;;;14.07;3.50;;;10.80;99.90;;;;;;6151724;23;20430;-90
2021/05/18 07:16:08;;;;;;;2.67;1.73;;;10.80;99.90;;;;;;6151413;23;20597;-90
2021/05/18 07:18:35;;;;;;;15.90;3.30;;;10.90;99.90;;;;;;6151602;23;20175;-90
2021/05/18 07:21:02;;;;;;;8.30;2.20;;;11.10;99.90;;;;;;6148927;23;20523;-90
2021/05/18 07:23:27;;;;;;;4.10;1.20;;;11.50;99.90;;;;;;6176061;23;20467;-91
2021/05/18 07:25:54;;;;;;;2.20;1.33;;;11.60;99.90;;;;;;6151096;23;20558;-91
2021/05/18 07:28:20;;;;;;;6.40;1.20;;;11.50;99.90;;;;;;6127542;23;20168;-93
2021/05/18 07:30:48;;;;;;;5.77;1.70;;;11.40;99.90;;;;;;6152362;23;20403;-93
2021/05/18 07:33:16;;;;;;;2.00;1.20;;;11.40;99.90;;;;;;6149769;23;20423;-93
2021/05/18 07:35:43;;;;;;;4.10;1.20;;;11.50;99.90;;;;;;6150134;23;20399;-94
2021/05/18 07:38:09;;;;;;;0.87;0.73;;;11.60;99.90;;;;;;6150658;23;20458;-92
2021/05/18 07:40:34;;;;;;;8.40;1.53;;;11.60;99.90;;;;;;6150649;23;20400;-91
2021/05/18 07:43:03;;;;;;;2.13;0.80;;;11.60;99.90;;;;;;6149472;23;20191;-91
2021/05/18 07:45:29;;;;;;;4.00;0.80;;;11.60;99.90;;;;;;6149936;23;20508;-90
2021/05/18 07:48:10;;;;;;;0.83;0.80;;;11.70;99.90;;;;;;6150850;23;20392;-91
2021/05/18 07:50:49;;;;;;;0.67;0.67;;;11.60;99.90;;;;;;6150238;23;20395;-90
2021/05/18 08:07:08;;;;;;;2.03;1.00;;;11.60;99.90;;;;;;6162534;23;20431;-96
2021/05/18 08:09:39;;;;;;;2.00;0.97;;;11.60;99.90;;;;;;6155140;23;20387;-96
2021/05/18 08:12:06;;;;;;;0.80;0.60;;;11.60;99.90;;;;;;6153474;23;20239;-95
2021/05/18 08:14:35;;;;;;;1.10;0.70;;;11.60;99.90;;;;;;6156138;23;20423;-90
2021/05/18 08:20:16;;;;;;;0.80;0.63;;;11.60;99.90;;;;;;6177698;23;20384;-92
2021/05/18 09:49:31;;;;;;;2.77;0.73;;;13.60;99.90;;;;;;6180068;23;20431;-93
2021/05/18 10:24:25;;;;;;;2.40;1.07;;;13.40;99.90;;;;;;6180506;23;20399;-95
2021/05/18 10:34:28;;;;;;;1.60;1.00;;;11.40;99.90;;;;;;6175684;23;20471;-87
2021/05/18 10:36:56;;;;;;;0.50;0.47;;;11.30;99.90;;;;;;6148150;23;20407;-90
2021/05/18 10:39:30;;;;;;;0.70;0.60;;;11.20;99.90;;;;;;6147309;23;20396;-89
2021/05/18 10:42:10;;;;;;;2.13;1.40;;;11.20;99.90;;;;;;6150022;23;20407;-91
2021/05/18 10:44:56;;;;;;;2.10;0.97;;;11.80;99.90;;;;;;6148862;23;20460;-90
2021/05/18 10:47:44;;;;;;;4.50;1.40;;;12.60;99.90;;;;;;6149909;23;20550;-92
2021/05/18 10:50:12;;;;;;;1.00;0.80;;;13.20;99.90;;;;;;6152028;23;20407;-89
2021/05/18 10:52:38;;;;;;;0.93;0.93;;;13.70;99.90;;;;;;6152593;23;20402;-94
2021/05/18 10:55:08;;;;;;;0.73;0.60;;;13.70;99.90;;;;;;6152813;23;20490;-95
2021/05/18 10:57:35;;;;;;;0.80;0.80;;;14.00;99.90;;;;;;6152319;23;20446;-94
2021/05/18 11:00:08;;;;;;;2.40;0.80;;;14.40;99.90;;;;;;6177901;23;20410;-93
2021/05/18 11:02:39;;;;;;;3.07;0.90;;;14.70;99.90;;;;;;6147000;23;20399;-91
2021/05/18 11:05:06;;;;;;;1.67;1.00;;;15.10;99.90;;;;;;6151850;23;20818;-94
2021/05/18 11:07:38;;;;;;;0.80;0.60;;;15.10;99.90;;;;;;6152207;23;20490;-95
2021/05/18 11:10:24;;;;;;;1.40;0.80;;;15.60;99.90;;;;;;6151912;23;20434;-93
2021/05/18 11:12:54;;;;;;;1.13;0.73;;;15.80;99.40;;;;;;6151508;23;20465;-96
2021/05/18 11:15:25;;;;;;;0.93;0.50;;;15.50;99.50;;;;;;6151232;23;20403;-92
2021/05/18 11:17:52;;;;;;;0.90;0.60;;;15.30;99.80;;;;;;6150502;23;20403;-91
2021/05/18 11:20:35;;;;;;;0.87;0.57;;;14.80;99.10;;;;;;6150841;23;20411;-90
2021/05/18 11:26:04;;;;;;;1.20;0.70;;;15.70;96.50;;;;;;6177109;23;20755;-91
2021/05/18 11:28:37;;;;;;;2.63;0.87;;;15.90;95.90;;;;;;6151025;23;20399;-95
2021/05/18 11:31:08;;;;;;;1.00;0.60;;;15.20;97.30;;;;;;6150950;23;20404;-91
2021/05/18 11:33:36;;;;;;;1.50;0.50;;;15.80;97.70;;;;;;6151565;23;20446;-93
2021/05/18 11:36:08;;;;;;;2.93;0.63;;;16.40;96.20;;;;;;6150787;23;20746;-91
2021/05/18 11:38:35;;;;;;;2.10;0.50;;;16.50;95.00;;;;;;6150870;23;20425;-91
2021/05/18 11:41:01;;;;;;;1.33;0.50;;;16.50;95.80;;;;;;6150680;23;20380;-92
2021/05/18 11:43:39;;;;;;;1.90;0.70;;;16.10;96.10;;;;;;6151404;23;20396;-94
2021/05/18 11:46:06;;;;;;;2.10;0.53;;;16.40;96.60;;;;;;6150898;23;20440;-90
2021/05/18 11:48:32;;;;;;;2.57;0.67;;;16.10;95.20;;;;;;6151514;23;20400;-92
2021/05/18 11:51:07;;;;;;;1.77;0.70;;;15.90;95.90;;;;;;6150477;23;20472;-91
2021/05/18 11:53:39;;;;;;;1.03;0.60;;;15.40;96.40;;;;;;6148784;23;20661;-91
2021/05/18 11:56:36;;;;;;;1.07;0.60;;;14.50;97.40;;;;;;6147384;23;20494;-92
2021/05/18 11:59:07;;;;;;;5.30;0.60;;;13.80;97.80;;;;;;6132827;23;20901;-88
2021/05/18 12:01:47;;;;;;;0.90;0.40;;;13.60;99.80;;;;;;6151585;23;20400;-92
2021/05/18 12:04:18;;;;;;;0.30;0.30;;;13.30;98.80;;;;;;6151075;23;20709;-89
2021/05/18 12:07:08;;;;;;;1.60;0.40;;;13.10;97.20;;;;;;6150386;23;20482;-90
2021/05/18 12:09:35;;;;;;;1.17;0.43;;;12.90;99.20;;;;;;6151343;23;20400;-90
2021/05/18 12:12:04;;;;;;;0.80;0.30;;;12.90;99.90;;;;;;6150200;23;20410;-89
2021/05/18 12:14:30;;;;;;;1.00;0.40;;;12.50;99.90;;;;;;6150028;23;20399;-90
2021/05/18 12:16:56;;;;;;;1.73;0.60;;;12.20;99.90;;;;;;6150796;23;20423;-91
2021/05/18 12:19:23;;;;;;;0.47;0.40;;;12.20;99.90;;;;;;6149913;23;20406;-90
2021/05/18 12:21:54;;;;;;;0.30;0.30;;;12.70;99.90;;;;;;6150799;23;20403;-89
2021/05/18 12:24:25;;;;;;;0.47;0.30;;;13.10;99.90;;;;;;6149799;23;20683;-91
2021/05/18 12:27:04;;;;;;;1.23;0.40;;;13.50;99.90;;;;;;6150233;23;20400;-90
2021/05/18 12:29:45;;;;;;;0.57;0.47;;;14.00;99.90;;;;;;6150540;23;21258;-90
2021/05/18 12:32:28;;;;;;;1.23;0.50;;;14.40;99.20;;;;;;6151048;23;20399;-90
2021/05/18 12:35:02;;;;;;;1.10;0.50;;;14.80;97.70;;;;;;6176173;23;20391;-91
2021/05/18 12:37:44;;;;;;;1.13;0.83;;;15.20;96.30;;;;;;6150576;23;20379;-92
2021/05/18 12:40:19;;;;;;;1.07;0.57;;;15.50;94.70;;;;;;6150995;23;20400;-90
2021/05/18 12:42:46;;;;;;;1.27;0.70;;;15.60;94.20;;;;;;6150399;23;20395;-90
2021/05/18 12:45:21;;;;;;;1.13;0.60;;;15.80;94.00;;;;;;6147264;23;20522;-89
2021/05/18 12:47:59;;;;;;;2.23;0.70;;;15.90;93.20;;;;;;6150660;23;20802;-91
2021/05/18 12:50:54;;;;;;;2.63;0.67;;;16.00;92.60;;;;;;6150374;23;20403;-92
2021/05/18 12:53:32;;;;;;;0.50;0.50;;;15.80;91.00;;;;;;6129385;23;20390;-90
2021/05/18 12:55:59;;;;;;;0.90;0.70;;;15.70;91.50;;;;;;6150011;23;20489;-91
2021/05/18 12:58:32;;;;;;;1.07;0.50;;;16.00;92.50;;;;;;6149893;23;20388;-91
2021/05/18 13:01:11;;;;;;;1.90;0.80;;;16.20;91.90;;;;;;6153110;23;20396;-94
2021/05/18 13:03:38;;;;;;;0.40;0.30;;;16.60;92.70;;;;;;6168413;23;20897;-95
2021/05/18 13:06:05;;;;;;;6.83;0.97;;;16.70;90.90;;;;;;6163220;23;20439;-92
2021/05/18 13:08:32;;;;;;;0.50;0.50;;;16.50;91.60;;;;;;6161935;23;20392;-95
2021/05/18 13:13:38;;;;;;;4.53;4.13;;;16.10;91.90;;;;;;6186604;23;20383;-95
2021/05/18 13:16:08;;;;;;;4.50;2.20;;;16.30;92.20;;;;;;6162730;23;20407;-94
2021/05/18 13:18:34;;;;;;;2.57;2.33;;;16.40;92.70;;;;;;6153809;23;20807;-96
2021/05/18 13:21:00;;;;;;;2.40;2.20;;;16.00;92.80;;;;;;6155175;23;20415;-95
2021/05/18 13:28:43;;;;;;;0.50;0.50;;;16.30;93.40;;;;;;6176885;23;20382;-96
2021/05/18 13:31:15;;;;;;;1.60;0.70;;;16.30;93.80;;;;;;6157507;23;20463;-95
2021/05/18 13:33:41;;;;;;;0.40;0.40;;;16.10;94.50;;;;;;6150854;23;20419;-95
2021/05/18 13:36:07;;;;;;;2.07;0.57;;;15.90;94.90;;;;;;6154358;23;20908;-95
2021/05/18 13:38:34;;;;;;;1.13;0.50;;;15.70;94.70;;;;;;6153960;23;20471;-93
2021/05/18 13:41:01;;;;;;;1.00;0.50;;;15.40;94.30;;;;;;6151770;23;20354;-96
2021/05/18 13:43:27;;;;;;;1.17;0.60;;;15.30;94.30;;;;;;6158006;23;20407;-93
2021/05/18 13:45:53;;;;;;;1.27;0.70;;;15.20;94.30;;;;;;6153869;23;20440;-94
2021/05/18 13:48:18;;;;;;;1.60;0.60;;;15.00;94.40;;;;;;6152885;23;20168;-92
2021/05/18 13:50:44;;;;;;;1.23;0.50;;;15.20;94.90;;;;;;6151660;23;20446;-93
2021/05/18 13:53:11;;;;;;;0.73;0.57;;;15.50;95.10;;;;;;6158950;23;20732;-96
2021/05/18 13:55:37;;;;;;;0.53;0.40;;;15.80;94.30;;;;;;6154153;23;20212;-94
2021/05/18 13:58:03;;;;;;;1.53;0.60;;;16.60;93.40;;;;;;6150917;23;20454;-92
2021/05/18 14:00:29;;;;;;;0.87;0.57;;;17.10;92.80;;;;;;6154691;23;20396;-93
2021/05/18 14:02:55;;;;;;;2.20;0.40;;;16.90;92.00;;;;;;6150028;23;20168;-93
2021/05/18 14:05:28;;;;;;;1.27;0.47;;;17.20;90.50;;;;;;6153869;23;20439;-96
2021/05/18 14:08:33;;;;;;;1.27;0.80;;;17.40;91.20;;;;;;6149193;23;20271;-93
2021/05/18 14:11:19;;;;;;;6.50;1.60;;;18.00;90.20;;;;;;6154117;23;20442;-94
2021/05/18 14:13:54;;;;;;;2.40;0.83;;;17.70;90.00;;;;;;6154516;23;20396;-94
2021/05/18 14:16:22;;;;;;;2.43;1.30;;;18.00;90.50;;;;;;6179627;23;20391;-94
2021/05/18 14:18:57;;;;;;;1.13;0.60;;;17.60;90.60;;;;;;6159415;23;20547;-94
2021/05/18 14:21:24;;;;;;;6.07;1.30;;;17.30;91.80;;;;;;6167343;23;20489;-90
2021/05/18 14:26:19;;;;;;;1.53;1.10;;;16.70;92.20;;;;;;6193709;23;20439;-96
2021/05/18 14:28:44;;;;;;;1.70;0.80;;;16.00;92.80;;;;;;6169638;23;20396;-96
2021/05/18 14:31:12;;;;;;;4.53;0.60;;;15.80;93.10;;;;;;6161168;23;20402;-92
2021/05/18 14:33:40;;;;;;;1.00;0.40;;;16.50;91.80;;;;;;6166747;23;20248;-96
2021/05/18 14:36:07;;;;;;;0.60;0.60;;;15.90;91.80;;;;;;6163820;23;20438;-93
2021/05/18 14:38:33;;;;;;;0.80;0.33;;;15.20;92.30;;;;;;6155070;23;20450;-94
2021/05/18 14:46:32;;;;;;;0.40;0.30;;;16.00;92.30;;;;;;6182520;23;20445;-96
2021/05/18 14:55:17;;;;;;;0.90;0.90;;;15.80;91.50;;;;;;6179765;23;20449;-94
2021/05/18 14:57:43;;;;;;;0.70;0.60;;;15.40;93.40;;;;;;6153988;23;20407;-93
2021/05/18 15:00:09;;;;;;;0.40;0.40;;;15.00;93.30;;;;;;6155934;23;20400;-94
2021/05/18 15:02:35;;;;;;;1.67;0.40;;;14.80;93.80;;;;;;6153789;23;20678;-96
2021/05/18 15:05:01;;;;;;;1.00;0.50;;;15.30;93.10;;;;;;6153343;23;20481;-88
2021/05/18 15:07:26;;;;;;;0.40;0.40;;;15.00;92.80;;;;;;6151869;23;20588;-94
2021/05/18 15:09:52;;;;;;;1.87;0.50;;;14.50;92.90;;;;;;6177689;23;20203;-90
2021/05/18 15:12:18;;;;;;;0.57;0.57;;;14.50;94.10;;;;;;6151861;23;20630;-89
2021/05/18 15:14:43;;;;;;;1.90;0.47;;;14.50;94.30;;;;;;6151603;23;20559;-91
2021/05/18 15:17:09;;;;;;;0.73;0.73;;;14.90;94.00;;;;;;6152012;23;20183;-93
2021/05/18 15:19:35;;;;;;;0.77;0.60;;;14.80;93.90;;;;;;6151654;23;20161;-89
2021/05/18 15:22:01;;;;;;;0.57;0.40;;;15.00;92.80;;;;;;6151826;23;20172;-90
2021/05/18 15:24:28;;;;;;;0.50;0.50;;;15.20;92.90;;;;;;6150927;23;20190;-90
2021/05/18 15:26:53;;;;;;;0.50;0.50;;;15.90;92.40;;;;;;6150782;23;20278;-90
2021/05/18 15:29:21;;;;;;;1.07;0.60;;;17.20;91.20;;;;;;6151193;23;20467;-90
2021/05/18 15:31:47;;;;;;;2.17;0.40;;;19.00;87.10;;;;;;6151783;23;20404;-90
2021/05/18 15:34:12;;;;;;;0.87;0.73;;;19.20;81.20;;;;;;6151170;23;20392;-90
2021/05/18 15:36:39;;;;;;;1.07;0.47;;;18.30;83.30;;;;;;6151813;23;20689;-90
2021/05/18 15:39:06;;;;;;;0.60;0.60;;;16.40;88.60;;;;;;6151266;23;20183;-95
2021/05/18 15:41:33;;;;;;;0.97;0.70;;;16.00;90.60;;;;;;6153332;23;20387;-95
2021/05/18 15:44:00;;;;;;;2.47;0.60;;;16.00;91.10;;;;;;6162226;23;20395;-96
2021/05/18 15:46:26;;;;;;;1.80;0.73;;;15.70;90.30;;;;;;6160943;23;20443;-95
2021/05/18 15:48:51;;;;;;;2.30;0.63;;;15.70;91.30;;;;;;6158435;23;20406;-96
2021/05/18 15:51:17;;;;;;;1.17;0.50;;;18.00;88.60;;;;;;6163940;23;20866;-93
2021/05/18 15:53:43;;;;;;;1.17;0.60;;;18.60;81.50;;;;;;6151137;23;20650;-92
2021/05/18 15:56:08;;;;;;;0.90;0.67;;;20.50;76.90;;;;;;6151805;23;20202;-95
2021/05/18 15:58:34;;;;;;;0.50;0.50;;;21.80;71.10;;;;;;6154014;23;20215;-92
2021/05/18 16:01:02;;;;;;;0.63;0.60;;;21.20;69.70;;;;;;6153399;23;20164;-96
2021/05/18 16:03:28;;;;;;;0.93;0.50;;;21.40;65.10;;;;;;6162153;23;20224;-95
2021/05/18 16:05:53;;;;;;;1.43;0.50;;;20.40;67.70;;;;;;6156850;23;20533;-93
2021/05/18 16:11:02;;;;;;;0.87;0.43;;;19.30;70.40;;;;;;6177441;23;20309;-93
2021/05/18 16:13:29;;;;;;;1.83;0.50;;;18.90;74.10;;;;;;6176107;23;20411;-91
2021/05/18 16:16:04;;;;;;;0.83;0.60;;;19.10;75.20;;;;;;6177854;23;20395;-94
2021/05/18 16:18:29;;;;;;;1.90;0.57;;;19.50;74.70;;;;;;6180142;23;20897;-94
2021/05/18 16:20:56;;;;;;;1.43;0.80;;;17.60;80.50;;;;;;6178505;23;20402;-87
2021/05/18 16:23:22;;;;;;;0.93;0.50;;;17.00;85.50;;;;;;6176330;23;20164;-89
2021/05/18 16:25:47;;;;;;;1.47;0.60;;;16.50;87.00;;;;;;6175846;23;20443;-91
2021/05/18 16:28:13;;;;;;;2.10;1.00;;;16.20;90.50;;;;;;6177112;23;20195;-90
2021/05/18 16:30:40;;;;;;;0.70;0.53;;;16.20;90.90;;;;;;6181544;23;20176;-94
2021/05/18 16:33:05;;;;;;;2.07;0.80;;;15.90;91.00;;;;;;6178628;23;20602;-92
2021/05/18 16:35:32;;;;;;;0.77;0.60;;;16.00;91.50;;;;;;6182938;23;20462;-92
2021/05/18 16:37:57;;;;;;;1.53;0.90;;;15.70;91.50;;;;;;6179237;23;20599;-94
2021/05/18 16:40:23;;;;;;;1.27;0.50;;;15.80;92.80;;;;;;6179414;23;20410;-91
2021/05/18 16:42:49;;;;;;;1.63;1.10;;;15.40;91.70;;;;;;6176076;23;20160;-94
2021/05/18 16:45:15;;;;;;;0.70;0.70;;;15.40;92.60;;;;;;6176427;23;20196;-92
2021/05/18 16:47:41;;;;;;;2.70;0.80;;;15.10;93.60;;;;;;6176794;23;20166;-91
2021/05/18 16:50:08;;;;;;;2.13;1.20;;;14.80;94.50;;;;;;6176721;23;20408;-91
2021/05/18 16:52:36;;;;;;;2.27;1.00;;;14.90;94.90;;;;;;6176679;23;20160;-92
2021/05/18 16:55:03;;;;;;;1.27;1.10;;;14.90;94.60;;;;;;6177695;23;20935;-91
2021/05/18 16:57:29;;;;;;;1.47;1.00;;;14.90;94.90;;;;;;6176887;23;20398;-92
2021/05/18 16:59:55;;;;;;;1.33;0.70;;;14.80;95.40;;;;;;6176996;23;20931;-94
2021/05/18 17:02:20;;;;;;;1.27;0.70;;;14.80;95.60;;;;;;6176841;23;20169;-92
2021/05/18 17:04:46;;;;;;;0.80;0.80;;;14.60;96.40;;;;;;6176336;23;20199;-92
2021/05/18 17:07:12;;;;;;;1.60;0.87;;;14.30;96.40;;;;;;6176872;23;20611;-93
2021/05/18 17:09:38;;;;;;;1.30;1.00;;;14.20;96.30;;;;;;6177698;23;20259;-94
2021/05/18 17:12:04;;;;;;;0.73;0.73;;;14.10;95.70;;;;;;6177361;23;20195;-95
2021/05/18 17:14:30;;;;;;;1.67;1.43;;;14.20;95.40;;;;;;6176659;23;20406;-94
2021/05/18 17:16:56;;;;;;;1.00;0.90;;;14.10;95.90;;;;;;6179196;23;20455;-96
2021/05/18 17:19:22;;;;;;;1.60;0.70;;;14.10;95.90;;;;;;6179491;23;20172;-96
2021/05/18 17:21:48;;;;;;;1.20;0.80;;;14.10;95.40;;;;;;6177915;23;20160;-91
2021/05/18 17:24:13;;;;;;;1.53;1.17;;;14.30;95.80;;;;;;6174097;23;20399;-94
2021/05/18 17:26:39;;;;;;;0.73;0.70;;;14.30;95.30;;;;;;6175809;23;20171;-91
2021/05/18 17:29:06;;;;;;;1.53;0.90;;;14.20;95.60;;;;;;6176129;23;20164;-91
2021/05/18 17:31:32;;;;;;;1.83;1.10;;;14.20;95.80;;;;;;6175541;23;20208;-92
2021/05/18 17:33:57;;;;;;;2.17;1.50;;;13.90;96.30;;;;;;6176454;23;20870;-92
2021/05/18 17:36:25;;;;;;;0.90;0.90;;;13.60;96.10;;;;;;6175421;23;20168;-92
2021/05/18 17:38:51;;;;;;;0.80;0.60;;;13.40;96.80;;;;;;6176796;23;20175;-92
2021/05/18 17:41:21;;;;;;;0.60;0.47;;;13.10;97.10;;;;;;6177994;23;20404;-92
2021/05/18 17:43:48;;;;;;;1.27;0.80;;;12.80;98.00;;;;;;6175745;23;20768;-91
2021/05/18 17:46:14;;;;;;;0.90;0.70;;;12.80;98.20;;;;;;6175871;23;20475;-94
2021/05/18 17:48:41;;;;;;;2.20;0.70;;;12.70;99.40;;;;;;6178869;23;20928;-91
2021/05/18 17:51:06;;;;;;;1.80;1.50;;;12.60;99.40;;;;;;6176610;23;20434;-91
2021/05/18 17:53:32;;;;;;;1.63;1.17;;;12.40;98.30;;;;;;6176905;23;20717;-94
2021/05/18 17:55:59;;;;;;;1.47;1.10;;;12.20;98.80;;;;;;6176554;23;20613;-92